Time;durP1;ratioP1;P1;durP2;ratioP2;P2;SDS_P1;SDS_P2;PMS_P1;PMS_P2;Temp;Humidity;BMP_temperature;BMP_pressure;BME280_temperature;BME280_humidity;BME280_pressure;Samples;Min_cycle;Max_cycle;Signal;HPM_P1;HPM_P2
2021/06/02 00:01:47;;;;;;;6.35;3.88;;;17.30;58.00;;;;;;5055005;28;20025;-35
2021/06/02 00:04:16;;;;;;;5.43;3.83;;;17.20;58.40;;;;;;5054401;28;20029;-35
2021/06/02 00:06:43;;;;;;;8.32;3.42;;;17.10;58.80;;;;;;5036630;28;20025;-35
2021/06/02 00:09:09;;;;;;;11.73;3.67;;;17.10;59.00;;;;;;5054869;28;20029;-36
2021/06/02 00:11:36;;;;;;;9.30;4.00;;;17.20;58.80;;;;;;5037340;28;20051;-35
2021/06/02 00:14:03;;;;;;;5.10;3.88;;;17.10;59.30;;;;;;5054250;28;20032;-35
2021/06/02 00:16:29;;;;;;;6.82;3.90;;;17.00;59.50;;;;;;5053977;28;20033;-36
2021/06/02 00:18:56;;;;;;;4.82;3.78;;;16.90;60.00;;;;;;5053709;28;20021;-34
2021/06/02 00:21:21;;;;;;;7.22;3.80;;;17.00;60.00;;;;;;5053666;28;20029;-35
2021/06/02 00:23:47;;;;;;;5.68;3.90;;;17.00;59.90;;;;;;5053622;28;20370;-36
2021/06/02 00:26:14;;;;;;;7.60;4.05;;;16.90;59.90;;;;;;5035330;28;20056;-36
2021/06/02 00:28:41;;;;;;;6.00;4.28;;;16.90;60.40;;;;;;5035805;28;20078;-36
2021/06/02 00:31:08;;;;;;;7.22;4.55;;;16.80;60.60;;;;;;5035622;28;20028;-35
2021/06/02 00:33:34;;;;;;;5.70;3.97;;;16.90;60.40;;;;;;5035881;28;20060;-36
2021/06/02 00:36:01;;;;;;;6.15;3.88;;;16.90;60.40;;;;;;5035654;28;20045;-35
2021/06/02 00:38:27;;;;;;;5.05;4.28;;;16.80;60.80;;;;;;5053410;28;20025;-36
2021/06/02 00:40:53;;;;;;;9.32;4.60;;;16.80;61.00;;;;;;5053618;28;20112;-35
2021/06/02 00:43:19;;;;;;;6.13;4.07;;;16.80;60.90;;;;;;5053633;28;20082;-36
2021/06/02 00:45:46;;;;;;;5.25;4.35;;;16.80;61.60;;;;;;5053664;28;20137;-35
2021/06/02 00:48:14;;;;;;;8.05;3.95;;;16.70;61.40;;;;;;5053367;28;20028;-35
2021/06/02 00:50:46;;;;;;;7.72;4.82;;;16.80;61.40;;;;;;5053311;28;20029;-35
2021/06/02 00:53:12;;;;;;;11.27;4.72;;;16.70;61.30;;;;;;5054057;28;20048;-35
2021/06/02 00:55:38;;;;;;;10.23;4.95;;;16.70;61.40;;;;;;5035241;28;20071;-35
2021/06/02 00:58:08;;;;;;;9.02;4.50;;;16.70;61.40;;;;;;5053227;28;20032;-35
2021/06/02 01:00:34;;;;;;;9.75;5.15;;;16.80;60.70;;;;;;5053461;28;20029;-35
2021/06/02 01:03:02;;;;;;;7.32;4.40;;;16.80;60.80;;;;;;5052855;28;20075;-35
2021/06/02 01:05:30;;;;;;;8.98;5.00;;;16.80;61.40;;;;;;5035758;28;20437;-35
2021/06/02 01:08:01;;;;;;;7.65;4.68;;;16.70;61.60;;;;;;5053248;28;20052;-35
2021/06/02 01:10:27;;;;;;;8.30;4.65;;;16.80;61.70;;;;;;5053133;28;20420;-35
2021/06/02 01:12:56;;;;;;;8.60;4.88;;;16.60;61.90;;;;;;5053440;28;20033;-36
2021/06/02 01:15:22;;;;;;;8.93;4.53;;;16.60;62.00;;;;;;5053014;28;20104;-35
2021/06/02 01:17:48;;;;;;;10.25;4.70;;;16.50;62.50;;;;;;5037153;28;20155;-35
2021/06/02 01:20:15;;;;;;;10.30;4.45;;;16.50;63.10;;;;;;5056925;28;20483;-35
2021/06/02 01:22:41;;;;;;;7.75;4.43;;;16.60;62.60;;;;;;5056782;28;20031;-36
2021/06/02 01:25:18;;;;;;;5.72;4.18;;;16.50;62.80;;;;;;5056600;28;20037;-35
2021/06/02 01:27:47;;;;;;;6.03;4.60;;;16.40;63.40;;;;;;5056543;28;20040;-36
2021/06/02 01:30:17;;;;;;;6.15;4.30;;;16.30;63.70;;;;;;5056745;28;20075;-41
2021/06/02 01:32:52;;;;;;;5.07;4.50;;;16.30;63.80;;;;;;5056715;28;20056;-35
2021/06/02 01:35:40;;;;;;;5.88;4.50;;;16.30;63.80;;;;;;5056598;28;20112;-36
2021/06/02 01:38:37;;;;;;;25.48;5.97;;;16.30;63.70;;;;;;5057075;28;20033;-36
2021/06/02 01:41:32;;;;;;;5.93;4.55;;;16.30;64.10;;;;;;5056597;28;20049;-35
2021/06/02 01:44:35;;;;;;;6.45;4.70;;;16.20;64.30;;;;;;5057251;28;20094;-35
2021/06/02 01:47:55;;;;;;;10.32;5.10;;;16.30;64.50;;;;;;5056431;28;20029;-35
2021/06/02 01:50:39;;;;;;;10.68;5.05;;;16.30;64.00;;;;;;4975732;28;20034;-35
2021/06/02 01:53:41;;;;;;;6.65;4.93;;;16.30;64.10;;;;;;5049751;28;20047;-35
2021/06/02 01:56:18;;;;;;;7.03;4.65;;;16.30;64.60;;;;;;5055548;28;20038;-35
2021/06/02 01:59:21;;;;;;;9.38;4.53;;;16.30;65.00;;;;;;5056279;28;20032;-44
2021/06/02 02:02:15;;;;;;;7.07;4.75;;;16.30;64.70;;;;;;5056094;28;20453;-35
2021/06/02 02:04:59;;;;;;;7.78;5.28;;;16.20;65.30;;;;;;5056140;28;20025;-34
2021/06/02 02:07:36;;;;;;;7.95;4.85;;;16.10;65.50;;;;;;5056546;28;20025;-35
2021/06/02 02:10:27;;;;;;;7.47;4.82;;;16.00;65.70;;;;;;5056233;28;20025;-35
2021/06/02 02:13:17;;;;;;;6.60;4.90;;;15.90;65.90;;;;;;5056883;28;20025;-36
2021/06/02 02:16:18;;;;;;;6.25;4.78;;;15.90;66.30;;;;;;5038162;28;20124;-35
2021/06/02 02:19:03;;;;;;;11.45;6.05;;;15.80;66.50;;;;;;5056233;28;20496;-36
2021/06/02 02:21:40;;;;;;;10.70;4.97;;;15.80;66.40;;;;;;5055835;28;20053;-34
2021/06/02 02:24:12;;;;;;;11.20;5.72;;;15.80;66.50;;;;;;5055858;28;20043;-35
2021/06/02 02:26:47;;;;;;;8.70;5.82;;;15.80;66.60;;;;;;5055707;28;20068;-36
2021/06/02 02:29:40;;;;;;;11.40;5.75;;;15.70;66.90;;;;;;5055081;28;20087;-35
2021/06/02 02:32:27;;;;;;;6.05;4.55;;;15.60;67.10;;;;;;5055699;28;20040;-35
2021/06/02 02:35:19;;;;;;;6.47;4.78;;;15.60;67.60;;;;;;5055803;28;20480;-35
2021/06/02 02:38:38;;;;;;;7.45;5.85;;;15.50;68.20;;;;;;5055987;28;20091;-36
2021/06/02 02:41:21;;;;;;;7.07;5.03;;;15.40;68.50;;;;;;4958793;28;20023;-35
2021/06/02 02:44:05;;;;;;;9.75;5.43;;;15.40;68.40;;;;;;5055908;28;20017;-35
2021/06/02 02:46:45;;;;;;;6.95;5.43;;;15.40;68.20;;;;;;5055483;28;20409;-35
2021/06/02 02:49:31;;;;;;;10.50;5.97;;;15.40;68.50;;;;;;5037546;28;20021;-35
2021/06/02 02:52:19;;;;;;;10.13;5.32;;;15.50;68.70;;;;;;5055976;28;20021;-36
2021/06/02 02:54:54;;;;;;;9.88;5.65;;;15.60;68.30;;;;;;5055888;28;20408;-35
2021/06/02 02:57:43;;;;;;;7.25;5.20;;;15.40;68.90;;;;;;5055995;28;20036;-35
2021/06/02 03:00:15;;;;;;;7.15;5.68;;;15.20;70.30;;;;;;5055866;28;20028;-35
2021/06/02 03:03:13;;;;;;;5.93;4.78;;;15.10;70.90;;;;;;5055657;28;20029;-35
2021/06/02 03:06:03;;;;;;;9.18;5.63;;;15.00;71.10;;;;;;5055509;28;20504;-36
2021/06/02 03:08:49;;;;;;;8.57;6.38;;;15.00;71.20;;;;;;5054754;28;20068;-36
2021/06/02 03:11:28;;;;;;;11.10;6.13;;;14.90;71.60;;;;;;5055482;28;20568;-35
2021/06/02 03:14:00;;;;;;;11.50;6.20;;;15.00;71.10;;;;;;5055779;28;20040;-36
2021/06/02 03:16:34;;;;;;;12.95;6.85;;;15.20;70.30;;;;;;5055240;28;20025;-35
2021/06/02 03:19:13;;;;;;;14.02;6.13;;;15.20;70.00;;;;;;5055068;28;20499;-35
2021/06/02 03:21:58;;;;;;;10.40;6.28;;;15.00;70.40;;;;;;5055326;28;20029;-35
2021/06/02 03:24:50;;;;;;;10.90;7.22;;;14.90;71.00;;;;;;5055495;28;20090;-36
2021/06/02 03:27:44;;;;;;;9.13;6.25;;;14.80;70.70;;;;;;5054927;28;20252;-35
2021/06/02 03:30:19;;;;;;;12.52;6.55;;;14.80;71.10;;;;;;5054714;28;20033;-35
2021/06/02 03:33:08;;;;;;;8.55;5.95;;;14.80;71.10;;;;;;5055513;28;20067;-36
2021/06/02 03:35:57;;;;;;;9.65;6.28;;;14.70;71.30;;;;;;5037010;28;20036;-35
2021/06/02 03:38:35;;;;;;;14.52;6.68;;;14.80;70.70;;;;;;5054999;28;20107;-36
2021/06/02 03:41:27;;;;;;;13.77;9.32;;;14.80;71.10;;;;;;5053669;28;20025;-35
2021/06/02 03:44:06;;;;;;;8.63;6.53;;;14.80;71.10;;;;;;5054339;28;20044;-35
2021/06/02 03:46:44;;;;;;;7.78;6.13;;;14.80;71.20;;;;;;5054704;28;20373;-34
2021/06/02 03:49:10;;;;;;;9.23;6.88;;;14.60;71.50;;;;;;5054543;28;20028;-35
2021/06/02 03:51:52;;;;;;;13.93;7.13;;;14.60;71.80;;;;;;5054823;28;20033;-35
2021/06/02 03:54:32;;;;;;;11.05;7.47;;;14.60;71.70;;;;;;5055092;28;20036;-35
2021/06/02 03:57:13;;;;;;;;;;;14.60;71.70;;;;;;5055629;28;20020;-35
2021/06/02 03:59:40;;;;;;;13.60;7.68;;;14.70;71.60;;;;;;5054525;28;19919;-36
2021/06/02 04:02:17;;;;;;;12.80;7.22;;;14.70;71.50;;;;;;5054594;28;20047;-36
2021/06/02 04:04:53;;;;;;;10.18;7.15;;;14.60;71.80;;;;;;5054202;28;20028;-35
2021/06/02 04:07:34;;;;;;;11.60;7.70;;;14.70;71.70;;;;;;5054247;28;20036;-35
2021/06/02 04:10:09;;;;;;;12.80;7.30;;;14.80;71.50;;;;;;5054725;28;20032;-38
2021/06/02 04:13:01;;;;;;;17.15;7.88;;;14.90;71.20;;;;;;5053982;28;20021;-36
2021/06/02 04:15:29;;;;;;;15.77;7.80;;;14.80;71.50;;;;;;5050218;28;20033;-35
2021/06/02 04:17:55;;;;;;;18.45;8.27;;;14.70;71.80;;;;;;5053983;28;20025;-34
2021/06/02 04:20:21;;;;;;;12.75;7.78;;;14.60;72.20;;;;;;5035957;28;20033;-35
2021/06/02 04:22:49;;;;;;;13.18;7.93;;;14.50;72.40;;;;;;5053851;28;20087;-35
2021/06/02 04:25:17;;;;;;;15.55;9.07;;;14.60;72.30;;;;;;5053256;28;20491;-35
2021/06/02 04:27:46;;;;;;;13.13;7.97;;;14.70;71.90;;;;;;5053259;28;20095;-36
2021/06/02 04:30:14;;;;;;;13.75;8.63;;;14.60;72.10;;;;;;5053471;28;20033;-34
2021/06/02 04:32:43;;;;;;;10.85;8.77;;;14.50;72.60;;;;;;5053878;28;20491;-35
2021/06/02 04:35:13;;;;;;;15.65;8.35;;;14.70;72.10;;;;;;5035767;28;20053;-35
2021/06/02 04:37:39;;;;;;;13.93;9.10;;;14.80;71.80;;;;;;5053867;28;20350;-34
2021/06/02 04:40:12;;;;;;;12.85;8.93;;;14.80;72.00;;;;;;5054398;28;20040;-35
2021/06/02 04:42:40;;;;;;;9.95;7.43;;;14.70;71.90;;;;;;5053210;28;20025;-35
2021/06/02 04:45:07;;;;;;;14.93;8.77;;;14.70;72.10;;;;;;5035316;28;20029;-36
2021/06/02 04:47:35;;;;;;;12.25;7.72;;;14.80;71.50;;;;;;5053078;28;20047;-36
2021/06/02 04:50:27;;;;;;;11.93;7.30;;;14.80;71.70;;;;;;5053014;28;20082;-35
2021/06/02 04:53:24;;;;;;;14.70;7.65;;;14.90;71.20;;;;;;5049221;28;20116;-37
2021/06/02 04:56:26;;;;;;;11.00;7.97;;;14.90;71.00;;;;;;5035442;28;20028;-35
2021/06/02 04:59:22;;;;;;;16.90;8.35;;;14.90;71.30;;;;;;5038243;28;20021;-35
2021/06/02 05:02:07;;;;;;;14.40;7.70;;;15.10;70.70;;;;;;5053109;28;20036;-35
2021/06/02 05:05:01;;;;;;;13.27;8.20;;;15.20;70.00;;;;;;5053239;28;20033;-34
2021/06/02 05:08:14;;;;;;;12.02;7.57;;;15.30;69.90;;;;;;4982158;28;20150;-36
2021/06/02 05:11:08;;;;;;;16.33;8.77;;;15.20;70.00;;;;;;5053535;28;20021;-36
2021/06/02 05:14:12;;;;;;;14.10;8.45;;;15.30;69.50;;;;;;5035129;28;20044;-35
2021/06/02 05:16:56;;;;;;;15.57;8.52;;;15.40;68.90;;;;;;5053233;28;20583;-35
2021/06/02 05:19:47;;;;;;;11.35;7.65;;;15.40;68.30;;;;;;5052700;28;20017;-36
2021/06/02 05:22:41;;;;;;;13.13;8.50;;;15.40;68.20;;;;;;5034659;28;20037;-35
2021/06/02 05:25:34;;;;;;;15.60;7.57;;;15.70;67.50;;;;;;5052924;28;20032;-35
2021/06/02 05:28:28;;;;;;;14.02;7.95;;;15.80;67.30;;;;;;5052308;28;20056;-42
2021/06/02 05:31:02;;;;;;;14.68;7.97;;;15.90;66.70;;;;;;5052763;28;20037;-36
2021/06/02 05:33:55;;;;;;;10.65;7.78;;;16.20;65.20;;;;;;5052780;28;20048;-36
2021/06/02 05:36:39;;;;;;;11.00;7.18;;;16.50;64.50;;;;;;5052748;28;20029;-36
2021/06/02 05:39:12;;;;;;;15.95;8.63;;;16.50;64.10;;;;;;5052957;28;20066;-35
2021/06/02 05:42:02;;;;;;;8.48;6.53;;;16.60;63.80;;;;;;5052322;28;20068;-36
2021/06/02 05:45:04;;;;;;;14.27;7.38;;;16.80;63.40;;;;;;5052641;28;20059;-35
2021/06/02 05:48:06;;;;;;;14.57;6.88;;;16.90;62.70;;;;;;5052897;28;20125;-35
2021/06/02 05:50:59;;;;;;;19.35;6.93;;;17.00;62.50;;;;;;5052511;28;20029;-35
2021/06/02 05:53:43;;;;;;;9.68;5.47;;;17.20;61.00;;;;;;5052715;28;20392;-35
2021/06/02 05:56:33;;;;;;;11.77;5.95;;;17.20;59.70;;;;;;5052314;28;20021;-36
2021/06/02 05:59:36;;;;;;;10.63;7.20;;;17.30;59.40;;;;;;5052220;28;20031;-36
2021/06/02 06:02:39;;;;;;;12.15;6.28;;;17.40;58.90;;;;;;5052317;28;20264;-37
2021/06/02 06:05:14;;;;;;;16.23;5.57;;;17.70;58.80;;;;;;5055753;28;20037;-35
2021/06/02 06:07:59;;;;;;;10.20;5.97;;;17.80;57.70;;;;;;5055801;28;20385;-36
2021/06/02 06:10:39;;;;;;;9.82;5.15;;;18.00;55.90;;;;;;5055532;28;20025;-36
2021/06/02 06:13:14;;;;;;;13.82;6.20;;;18.10;56.60;;;;;;5055791;28;20025;-35
2021/06/02 06:16:13;;;;;;;10.63;6.43;;;18.20;56.20;;;;;;5055647;28;20025;-35
2021/06/02 06:19:11;;;;;;;9.63;4.90;;;18.60;55.30;;;;;;5055581;28;20427;-35
2021/06/02 06:22:29;;;;;;;11.73;5.25;;;18.70;54.60;;;;;;5037358;28;20036;-35
2021/06/02 06:24:59;;;;;;;11.35;3.75;;;18.80;53.60;;;;;;4967268;28;20043;-35
2021/06/02 06:27:42;;;;;;;8.85;4.10;;;19.10;51.70;;;;;;5033977;28;20056;-36
2021/06/02 06:30:20;;;;;;;6.15;3.72;;;19.50;50.40;;;;;;5035240;28;20040;-36
2021/06/02 06:32:50;;;;;;;6.85;3.70;;;19.60;49.20;;;;;;5035469;28;20021;-36
2021/06/02 06:35:17;;;;;;;7.78;3.80;;;19.80;48.80;;;;;;5035232;28;20087;-35
2021/06/02 06:37:46;;;;;;;7.88;3.88;;;20.10;48.00;;;;;;5035022;28;20371;-36
2021/06/02 06:40:20;;;;;;;5.75;3.63;;;20.10;48.30;;;;;;5035372;28;20021;-36
2021/06/02 06:42:51;;;;;;;8.70;5.03;;;20.20;48.60;;;;;;5035047;28;20029;-36
2021/06/02 06:45:26;;;;;;;7.78;4.47;;;20.20;47.60;;;;;;5018051;28;20113;-35
2021/06/02 06:47:52;;;;;;;7.45;4.03;;;20.20;48.00;;;;;;5034768;28;20109;-36
2021/06/02 06:50:20;;;;;;;7.03;4.30;;;20.10;48.90;;;;;;5035031;28;20535;-35
2021/06/02 06:52:55;;;;;;;7.07;3.72;;;20.10;49.60;;;;;;5035180;28;20489;-36
2021/06/02 06:55:23;;;;;;;9.68;4.35;;;20.20;49.10;;;;;;5034875;28;20033;-36
2021/06/02 06:57:49;;;;;;;7.28;3.47;;;20.30;48.90;;;;;;5016343;28;20381;-36
2021/06/02 07:00:17;;;;;;;7.90;4.00;;;20.40;48.10;;;;;;5034374;28;20081;-37
2021/06/02 07:02:44;;;;;;;8.55;4.15;;;20.40;48.50;;;;;;5034190;28;20057;-36
2021/06/02 07:05:11;;;;;;;8.57;3.10;;;20.50;48.00;;;;;;5016277;28;20084;-36
2021/06/02 07:07:41;;;;;;;15.93;4.85;;;20.60;47.30;;;;;;5034188;28;20072;-37
2021/06/02 07:10:08;;;;;;;10.17;3.40;;;20.60;46.60;;;;;;5034341;28;20033;-36
2021/06/02 07:12:38;;;;;;;8.18;3.25;;;20.70;46.50;;;;;;5017203;28;20030;-36
2021/06/02 07:15:09;;;;;;;7.57;3.20;;;20.90;45.80;;;;;;5016596;28;20033;-36
2021/06/02 07:17:43;;;;;;;8.55;4.00;;;21.10;44.90;;;;;;5034245;28;20021;-37
2021/06/02 07:20:13;;;;;;;4.78;3.75;;;21.30;44.70;;;;;;5033851;28;20025;-36
2021/06/02 07:22:45;;;;;;;7.28;3.35;;;21.20;43.90;;;;;;5034117;28;20063;-36
2021/06/02 07:25:17;;;;;;;15.43;3.58;;;21.40;44.00;;;;;;5034126;28;20056;-36
2021/06/02 07:27:45;;;;;;;11.13;3.55;;;21.60;43.60;;;;;;5033831;28;20053;-35
2021/06/02 07:30:11;;;;;;;8.73;3.22;;;22.40;42.00;;;;;;5033984;28;20125;-35
2021/06/02 07:32:37;;;;;;;5.45;3.15;;;22.20;42.70;;;;;;5016181;28;20116;-35
2021/06/02 07:35:03;;;;;;;8.10;3.08;;;22.30;42.60;;;;;;5034303;28;20100;-35
2021/06/02 07:37:29;;;;;;;4.00;2.60;;;22.50;41.30;;;;;;5033807;28;20120;-35
2021/06/02 07:39:54;;;;;;;11.43;3.17;;;23.30;38.80;;;;;;5016032;28;20039;-35
2021/06/02 07:42:20;;;;;;;7.57;3.00;;;23.00;39.90;;;;;;5034096;28;20029;-36
2021/06/02 07:44:46;;;;;;;5.63;2.42;;;23.20;38.90;;;;;;5033932;28;20034;-36
2021/06/02 07:47:11;;;;;;;6.53;3.55;;;23.40;39.50;;;;;;5033651;28;20084;-36
2021/06/02 07:49:37;;;;;;;5.28;2.75;;;24.30;36.80;;;;;;5034108;28;20470;-35
2021/06/02 07:52:03;;;;;;;7.75;2.58;;;24.10;36.80;;;;;;5034306;28;20044;-37
2021/06/02 07:54:29;;;;;;;5.60;2.65;;;23.60;38.00;;;;;;5034142;28;20421;-36
2021/06/02 07:56:55;;;;;;;4.88;2.20;;;24.50;35.50;;;;;;5034366;28;20041;-37
2021/06/02 07:59:20;;;;;;;9.57;2.92;;;24.40;33.50;;;;;;5033484;28;20160;-35
2021/06/02 08:01:47;;;;;;;4.72;2.60;;;25.30;33.70;;;;;;5033524;28;20025;-37
2021/06/02 08:04:13;;;;;;;8.75;2.60;;;25.20;32.80;;;;;;5034487;28;20067;-36
2021/06/02 08:06:39;;;;;;;8.30;2.85;;;24.60;33.60;;;;;;5033733;28;20080;-36
2021/06/02 08:09:06;;;;;;;5.25;2.67;;;25.30;32.90;;;;;;5034274;28;20036;-36
2021/06/02 08:11:32;;;;;;;8.60;2.40;;;26.20;31.10;;;;;;5033625;28;20367;-36
2021/06/02 08:13:58;;;;;;;5.70;2.47;;;26.50;29.20;;;;;;5033743;28;20036;-37
2021/06/02 08:16:24;;;;;;;8.40;2.70;;;26.30;29.40;;;;;;5033219;28;20109;-37
2021/06/02 08:18:51;;;;;;;7.18;2.75;;;26.30;30.00;;;;;;5033248;28;20074;-40
2021/06/02 08:21:17;;;;;;;3.67;2.55;;;26.30;30.40;;;;;;5033465;28;20017;-36
2021/06/02 08:23:42;;;;;;;3.88;2.47;;;26.40;30.00;;;;;;5033211;28;20031;-36
2021/06/02 08:26:09;;;;;;;4.78;2.40;;;26.10;30.90;;;;;;5033196;28;20120;-34
2021/06/02 08:28:35;;;;;;;4.35;2.60;;;26.20;30.70;;;;;;5033452;28;20135;-36
2021/06/02 08:31:00;;;;;;;5.10;2.30;;;26.90;28.90;;;;;;5033072;28;20135;-35
2021/06/02 08:33:26;;;;;;;4.80;2.33;;;26.20;30.50;;;;;;5032878;28;20022;-36
2021/06/02 08:35:52;;;;;;;3.63;2.65;;;25.90;30.20;;;;;;5015234;28;20022;-36
2021/06/02 08:38:17;;;;;;;4.63;2.35;;;26.30;29.50;;;;;;5032882;28;20181;-35
2021/06/02 08:40:43;;;;;;;4.88;2.42;;;26.90;29.10;;;;;;5032983;28;20420;-36
2021/06/02 08:43:09;;;;;;;8.13;2.00;;;26.10;30.30;;;;;;5015818;28;20155;-36
2021/06/02 08:45:35;;;;;;;6.28;3.08;;;26.80;29.10;;;;;;5032849;28;20025;-36
2021/06/02 08:48:01;;;;;;;7.53;2.38;;;26.80;29.60;;;;;;5033588;28;20179;-37
2021/06/02 08:50:27;;;;;;;3.70;2.10;;;27.20;28.90;;;;;;5033835;28;20037;-37
2021/06/02 08:52:56;;;;;;;4.72;2.63;;;27.30;28.30;;;;;;5032859;28;20453;-37
2021/06/02 08:55:22;;;;;;;3.83;2.20;;;27.00;29.20;;;;;;5032837;28;20098;-36
2021/06/02 08:57:50;;;;;;;5.40;3.05;;;26.90;29.60;;;;;;5015077;28;20028;-38
2021/06/02 09:00:18;;;;;;;4.93;2.50;;;27.90;28.60;;;;;;5033027;28;20384;-37
2021/06/02 09:02:46;;;;;;;6.32;3.00;;;27.90;27.70;;;;;;5032880;28;20100;-38
2021/06/02 09:05:15;;;;;;;4.43;2.00;;;27.30;29.00;;;;;;5033083;28;20028;-36
2021/06/02 09:07:41;;;;;;;3.22;2.78;;;27.00;29.20;;;;;;5015309;28;20065;-37
2021/06/02 09:10:09;;;;;;;4.53;2.08;;;28.30;27.40;;;;;;5014986;28;20424;-36
2021/06/02 09:12:39;;;;;;;3.90;2.28;;;27.30;28.20;;;;;;5032882;28;20397;-36
2021/06/02 09:15:13;;;;;;;3.65;2.42;;;27.20;28.90;;;;;;5032752;28;20049;-37
2021/06/02 09:17:56;;;;;;;12.40;2.70;;;27.50;28.70;;;;;;5031945;28;20068;-38
2021/06/02 09:20:41;;;;;;;4.82;2.22;;;27.70;28.00;;;;;;5032411;28;20018;-36
2021/06/02 09:23:27;;;;;;;4.47;2.05;;;29.00;26.70;;;;;;5032356;28;20021;-36
2021/06/02 09:26:14;;;;;;;5.28;2.20;;;29.10;25.40;;;;;;5014297;28;20029;-36
2021/06/02 09:28:46;;;;;;;7.32;2.25;;;29.00;26.20;;;;;;5031914;28;20037;-36
2021/06/02 09:31:39;;;;;;;6.38;3.40;;;29.60;25.20;;;;;;5014413;28;20378;-36
2021/06/02 09:34:23;;;;;;;4.78;2.40;;;29.40;25.40;;;;;;5032055;28;20176;-36
2021/06/02 09:37:02;;;;;;;4.47;2.40;;;29.40;25.60;;;;;;5031887;28;20010;-37
2021/06/02 09:39:28;;;;;;;8.15;2.78;;;29.20;25.60;;;;;;5035415;28;20021;-37
2021/06/02 09:42:00;;;;;;;9.52;5.78;;;28.60;26.10;;;;;;5017993;28;20029;-36
2021/06/02 09:44:30;;;;;;;5.82;2.47;;;28.60;26.70;;;;;;5035878;28;20474;-37
2021/06/02 09:47:07;;;;;;;6.10;2.55;;;29.00;26.50;;;;;;5017716;28;20106;-41
2021/06/02 13:34:00;;;;;;;2.50;1.73;;;33.70;17.90;;;;;;5070593;28;20424;-38
2021/06/02 13:36:26;;;;;;;5.18;2.40;;;34.10;17.80;;;;;;5070436;28;20412;-39
2021/06/02 13:39:12;;;;;;;2.13;1.52;;;33.70;18.20;;;;;;5068524;28;20017;-39
2021/06/02 13:41:39;;;;;;;1.98;1.80;;;32.40;19.00;;;;;;5070205;28;20025;-37
2021/06/02 13:44:06;;;;;;;1.42;1.30;;;32.80;18.50;;;;;;5070031;28;20524;-38
2021/06/02 13:46:32;;;;;;;1.85;1.48;;;32.30;19.10;;;;;;5069995;28;20441;-39
2021/06/02 13:48:58;;;;;;;4.55;1.52;;;31.80;19.20;;;;;;5070045;28;20029;-38
2021/06/02 13:51:32;;;;;;;2.67;1.80;;;31.80;19.00;;;;;;5068604;28;20027;-38
2021/06/02 13:54:14;;;;;;;5.55;2.40;;;31.60;19.30;;;;;;5068725;28;20020;-40
2021/06/02 13:57:05;;;;;;;6.07;1.90;;;32.20;19.50;;;;;;5069741;28;20071;-38
2021/06/02 13:59:57;;;;;;;1.70;1.52;;;31.90;19.30;;;;;;5069360;28;20037;-38
2021/06/02 14:02:34;;;;;;;1.70;1.45;;;31.30;20.30;;;;;;5069996;28;20033;-38
2021/06/02 14:05:10;;;;;;;3.70;1.67;;;31.80;18.60;;;;;;5069416;28;20032;-37
2021/06/02 14:07:36;;;;;;;2.10;1.60;;;33.20;17.80;;;;;;5069300;28;20036;-38
2021/06/02 14:10:04;;;;;;;3.67;1.85;;;33.40;18.10;;;;;;5069504;28;20037;-38
2021/06/02 14:12:30;;;;;;;3.50;1.65;;;32.80;19.00;;;;;;5069509;28;20480;-38
2021/06/02 14:14:56;;;;;;;2.72;1.52;;;32.80;18.10;;;;;;5067942;28;20024;-38
2021/06/02 14:17:21;;;;;;;6.40;1.80;;;33.80;17.70;;;;;;5068894;28;20104;-38
2021/06/02 14:19:48;;;;;;;4.03;1.10;;;33.90;17.80;;;;;;5069149;28;20057;-38
2021/06/02 14:22:15;;;;;;;2.28;1.67;;;32.70;19.30;;;;;;5067543;28;20433;-38
2021/06/02 14:24:41;;;;;;;2.13;1.60;;;31.30;21.40;;;;;;5067797;28;20017;-38
2021/06/02 14:27:08;;;;;;;1.83;1.67;;;32.20;20.00;;;;;;5068842;28;20028;-39
2021/06/02 14:29:36;;;;;;;2.42;1.60;;;31.70;20.80;;;;;;5068994;28;20029;-38
2021/06/02 14:32:06;;;;;;;1.98;1.55;;;34.20;18.40;;;;;;5066897;28;20428;-38
2021/06/02 14:34:32;;;;;;;3.22;2.20;;;34.20;18.20;;;;;;5068847;28;20447;-38
2021/06/02 14:36:58;;;;;;;1.92;1.50;;;32.30;19.70;;;;;;5066967;28;20034;-39
2021/06/02 14:39:23;;;;;;;3.67;1.75;;;31.60;20.80;;;;;;5068384;28;20024;-38
2021/06/02 14:41:49;;;;;;;2.15;1.55;;;30.90;22.00;;;;;;5068393;28;20104;-38
2021/06/02 14:44:15;;;;;;;1.90;1.80;;;30.60;21.60;;;;;;5061547;28;20025;-40
2021/06/02 14:46:42;;;;;;;5.10;2.10;;;30.20;22.00;;;;;;5054122;28;20029;-37
2021/06/02 14:49:09;;;;;;;7.78;6.93;;;29.80;21.50;;;;;;5054814;28;20029;-38
2021/06/02 14:51:35;;;;;;;1.77;1.63;;;29.80;21.80;;;;;;5056203;28;20051;-39
2021/06/02 14:54:02;;;;;;;2.95;1.88;;;30.20;21.60;;;;;;5056116;28;20021;-38
2021/06/02 14:56:28;;;;;;;2.78;2.38;;;30.20;21.80;;;;;;5053789;28;20120;-37
2021/06/02 14:58:54;;;;;;;2.63;1.35;;;29.90;21.70;;;;;;5055196;28;20029;-38
2021/06/02 15:01:19;;;;;;;1.92;1.58;;;29.60;22.60;;;;;;5053828;28;20021;-38
2021/06/02 15:03:45;;;;;;;1.58;1.33;;;30.00;22.30;;;;;;5055349;28;20029;-38
2021/06/02 15:06:11;;;;;;;2.70;1.58;;;29.80;22.00;;;;;;5054792;28;20029;-37
2021/06/02 15:08:38;;;;;;;4.13;1.55;;;29.50;21.70;;;;;;5054809;28;20032;-38
2021/06/02 15:11:05;;;;;;;1.73;1.38;;;29.80;21.50;;;;;;5054883;28;20033;-38
2021/06/02 15:13:32;;;;;;;1.35;1.25;;;29.90;20.80;;;;;;5055385;28;20035;-38
2021/06/02 15:16:00;;;;;;;4.25;1.70;;;30.30;20.80;;;;;;5054948;28;20017;-38
2021/06/02 15:18:26;;;;;;;1.58;1.48;;;29.90;21.40;;;;;;5054915;28;20028;-39
2021/06/02 15:20:53;;;;;;;3.58;1.55;;;29.60;21.80;;;;;;5054886;28;20434;-38
2021/06/02 15:23:21;;;;;;;4.45;1.88;;;29.80;21.70;;;;;;5055144;28;20473;-38
2021/06/02 15:25:48;;;;;;;1.70;1.55;;;30.10;21.80;;;;;;5054602;28;20040;-39
2021/06/02 15:28:20;;;;;;;4.15;1.58;;;29.40;22.20;;;;;;5055993;28;20452;-39
2021/06/02 15:30:47;;;;;;;2.85;1.92;;;30.00;21.40;;;;;;5053413;28;20032;-37
2021/06/02 15:33:13;;;;;;;4.78;1.73;;;29.80;22.00;;;;;;5054527;28;20045;-37
2021/06/02 15:35:40;;;;;;;4.07;1.80;;;30.20;21.80;;;;;;5054596;28;20539;-38
2021/06/02 15:38:10;;;;;;;2.45;1.75;;;30.10;22.60;;;;;;5054818;28;20059;-38
2021/06/02 15:40:37;;;;;;;;;;;30.00;22.10;;;;;;5053805;28;20116;-38
2021/06/02 15:43:03;;;;;;;13.57;1.67;;;29.90;22.00;;;;;;5054569;28;19979;-38
2021/06/02 15:45:30;;;;;;;2.60;1.55;;;29.40;22.50;;;;;;5054918;28;20103;-38
2021/06/02 15:47:57;;;;;;;1.83;1.55;;;29.60;22.10;;;;;;5053911;28;20036;-38
2021/06/02 15:50:23;;;;;;;1.33;1.20;;;29.60;21.60;;;;;;5054777;28;20024;-39
2021/06/02 15:52:51;;;;;;;1.38;1.27;;;29.50;21.80;;;;;;5052904;28;20104;-41
2021/06/02 15:55:18;;;;;;;1.23;1.10;;;29.40;21.70;;;;;;5051898;28;20334;-37
2021/06/02 15:57:45;;;;;;;1.40;1.30;;;29.50;21.30;;;;;;5054429;28;20032;-38
2021/06/02 16:00:17;;;;;;;1.80;1.50;;;29.50;21.50;;;;;;5053826;28;20644;-38
2021/06/02 16:02:43;;;;;;;3.97;1.60;;;29.30;21.70;;;;;;5054065;28;20032;-38
2021/06/02 16:05:16;;;;;;;1.98;1.55;;;29.50;21.50;;;;;;5054279;28;20029;-38
2021/06/02 16:07:42;;;;;;;2.28;1.50;;;29.60;21.70;;;;;;5054579;28;20476;-38
2021/06/02 16:10:09;;;;;;;3.20;2.33;;;31.20;19.40;;;;;;5054518;28;20028;-38
2021/06/02 16:12:36;;;;;;;1.83;1.38;;;32.40;18.20;;;;;;5052907;28;20025;-38
2021/06/02 16:15:03;;;;;;;1.77;1.40;;;31.80;18.90;;;;;;5053081;28;20040;-40
2021/06/02 16:17:30;;;;;;;1.85;1.50;;;32.50;18.60;;;;;;5054847;28;20025;-38
2021/06/02 16:19:56;;;;;;;6.63;1.27;;;33.50;17.50;;;;;;5053232;28;20024;-38
2021/06/02 16:22:26;;;;;;;2.75;1.92;;;32.50;18.80;;;;;;5054103;28;20037;-38
2021/06/02 16:24:51;;;;;;;5.10;1.65;;;33.30;17.70;;;;;;5052899;28;20392;-37
2021/06/02 16:27:21;;;;;;;3.55;1.88;;;33.30;17.80;;;;;;5053537;28;20051;-38
2021/06/02 16:29:47;;;;;;;3.88;1.75;;;32.70;18.60;;;;;;5054196;28;20029;-38
2021/06/02 16:32:17;;;;;;;3.80;2.30;;;33.20;18.10;;;;;;5054019;28;20554;-38
2021/06/02 16:34:44;;;;;;;;;;;33.50;16.90;;;;;;5054157;28;20055;-37
2021/06/02 16:37:10;;;;;;;1.35;1.25;;;33.00;18.20;;;;;;5053512;28;19915;-38
2021/06/02 16:39:36;;;;;;;1.88;1.63;;;33.50;17.60;;;;;;5051806;28;20020;-39
2021/06/02 16:42:05;;;;;;;1.75;1.42;;;33.00;18.60;;;;;;5052947;28;20025;-38
2021/06/02 16:44:31;;;;;;;1.85;1.45;;;32.70;18.70;;;;;;5051555;28;20362;-37
2021/06/02 16:46:59;;;;;;;2.78;1.27;;;32.80;18.70;;;;;;5053163;28;20119;-38
2021/06/02 16:49:25;;;;;;;4.80;1.50;;;31.80;19.90;;;;;;5052853;28;20114;-38
2021/06/02 16:51:55;;;;;;;2.00;1.60;;;32.10;19.60;;;;;;5051492;28;20152;-39
2021/06/02 16:54:21;;;;;;;2.65;1.63;;;31.80;20.10;;;;;;5053593;28;20091;-38
2021/06/02 16:56:47;;;;;;;2.65;1.30;;;31.90;20.00;;;;;;5053218;28;20024;-39
2021/06/02 16:59:15;;;;;;;4.70;1.95;;;31.10;19.30;;;;;;5053269;28;20104;-39
2021/06/02 17:01:41;;;;;;;2.33;2.13;;;30.30;20.70;;;;;;5053035;28;20108;-38
2021/06/02 17:04:08;;;;;;;4.38;2.20;;;29.50;20.50;;;;;;5054249;28;20083;-38
2021/06/02 17:06:36;;;;;;;3.03;1.90;;;29.10;21.50;;;;;;5052778;28;20112;-38